Time;durP1;ratioP1;P1;durP2;ratioP2;P2;SDS_P1;SDS_P2;PMS_P1;PMS_P2;Temp;Humidity;BMP_temperature;BMP_pressure;BME280_temperature;BME280_humidity;BME280_pressure;Samples;Min_cycle;Max_cycle;Signal;HPM_P1;HPM_P2
2020/12/03 00:01:12;;;;;;;46.37;26.27;;;;;;;-1.60;76.17;100499.44;126671;1093;105316;-78
2020/12/03 00:06:56;;;;;;;44.37;25.60;;;;;;;-1.57;75.42;100496.94;126598;1093;104423;-76
2020/12/03 00:09:24;;;;;;;43.93;26.00;;;;;;;-1.56;75.89;100503.77;126649;1093;104378;-77
2020/12/03 00:11:55;;;;;;;40.97;24.20;;;;;;;-1.55;75.26;100495.27;126734;1093;104197;-77
2020/12/03 00:14:23;;;;;;;41.27;24.83;;;;;;;-1.54;75.10;100500.41;126671;1093;104477;-75
2020/12/03 00:16:52;;;;;;;42.03;24.30;;;;;;;-1.52;75.51;100510.67;126451;1093;104542;-77
2020/12/03 00:19:24;;;;;;;44.07;25.73;;;;;;;-1.50;75.37;100505.59;126738;1093;104372;-76
2020/12/03 00:22:01;;;;;;;40.90;25.03;;;;;;;-1.47;75.22;100510.76;126692;1093;104353;-77
2020/12/03 00:24:31;;;;;;;42.43;25.60;;;;;;;-1.46;75.37;100522.72;126706;1093;104410;-77
2020/12/03 00:27:12;;;;;;;43.17;25.30;;;;;;;-1.46;75.30;100513.34;126659;1098;104577;-76
2020/12/03 00:29:40;;;;;;;43.50;25.90;;;;;;;-1.44;75.72;100521.05;126683;1098;105056;-76
2020/12/03 00:32:09;;;;;;;44.13;24.57;;;;;;;-1.43;75.11;100518.55;126716;1093;104291;-76
2020/12/03 00:34:36;;;;;;;45.53;25.27;;;;;;;-1.42;75.68;100519.41;126691;1093;104468;-76
2020/12/03 00:37:03;;;;;;;44.00;26.33;;;;;;;-1.39;75.65;100515.22;126730;1098;104393;-76
2020/12/03 00:39:31;;;;;;;42.57;25.67;;;;;;;-1.38;74.87;100529.73;126684;1093;103687;-76
2020/12/03 00:41:58;;;;;;;43.98;25.48;;;;;;;-1.38;75.01;100514.38;126615;1093;104391;-76
2020/12/03 00:44:25;;;;;;;40.70;24.23;;;;;;;-1.37;75.07;100521.23;126592;1093;104544;-76
2020/12/03 00:46:53;;;;;;;41.03;23.93;;;;;;;-1.36;74.67;100540.86;126673;1093;104554;-76
2020/12/03 00:49:20;;;;;;;44.43;24.20;;;;;;;-1.35;74.59;100539.16;126551;1093;103232;-76
2020/12/03 00:51:51;;;;;;;41.10;22.53;;;;;;;-1.37;74.84;100539.13;126668;1090;104481;-76
2020/12/03 00:54:21;;;;;;;43.97;23.63;;;;;;;-1.35;74.40;100537.47;126657;1098;104545;-76
2020/12/03 00:56:51;;;;;;;40.20;23.63;;;;;;;-1.34;74.39;100534.08;126669;1098;104403;-76
2020/12/03 00:59:18;;;;;;;40.13;24.00;;;;;;;-1.32;74.66;100547.76;126661;1093;104426;-76
2020/12/03 01:01:45;;;;;;;46.57;24.57;;;;;;;-1.31;74.74;100549.48;126702;1098;104589;-76
2020/12/03 01:04:13;;;;;;;39.53;23.83;;;;;;;-1.29;74.14;100542.70;126614;1098;104615;-75
2020/12/03 01:06:40;;;;;;;43.77;26.10;;;;;;;-1.28;74.76;100554.66;126650;1093;104997;-76
2020/12/03 01:09:07;;;;;;;41.08;23.80;;;;;;;-1.26;74.22;100537.67;126641;1093;104469;-76
2020/12/03 01:11:34;;;;;;;40.10;23.10;;;;;;;-1.24;74.27;100532.58;126633;1093;104439;-77
2020/12/03 01:14:02;;;;;;;40.53;22.93;;;;;;;-1.23;73.65;100521.51;126665;1093;103237;-76
2020/12/03 01:16:29;;;;;;;38.70;23.90;;;;;;;-1.24;73.83;100527.46;126698;1093;104397;-76
2020/12/03 01:18:56;;;;;;;43.87;23.83;;;;;;;-1.25;73.99;100513.80;126689;1093;104442;-76
2020/12/03 01:21:24;;;;;;;39.80;22.63;;;;;;;-1.25;73.65;100512.94;126680;1093;104499;-76
2020/12/03 01:23:51;;;;;;;42.23;23.97;;;;;;;-1.24;73.70;100505.30;126677;1093;104372;-77
2020/12/03 01:26:19;;;;;;;39.33;22.87;;;;;;;-1.25;74.26;100493.33;126618;1093;105815;-75
2020/12/03 01:28:48;;;;;;;37.93;22.53;;;;;;;-1.23;73.91;100501.90;126654;1093;104509;-77
2020/12/03 01:31:16;;;;;;;35.10;22.13;;;;;;;-1.22;73.92;100485.70;126559;1093;104519;-75
2020/12/03 01:33:43;;;;;;;40.53;23.87;;;;;;;-1.21;73.71;100486.57;126650;1093;106506;-77
2020/12/03 01:36:13;;;;;;;36.53;21.17;;;;;;;-1.23;73.66;100496.78;126659;1093;104474;-75
2020/12/03 01:38:42;;;;;;;35.67;21.17;;;;;;;-1.24;73.59;100500.17;126715;1093;104443;-75
2020/12/03 01:41:10;;;;;;;35.53;21.03;;;;;;;-1.26;73.39;100486.48;126656;1092;104520;-76
2020/12/03 01:43:45;;;;;;;36.27;20.87;;;;;;;-1.25;73.66;100472.86;126598;1093;104554;-76
2020/12/03 01:46:13;;;;;;;32.00;19.93;;;;;;;-1.25;73.24;100472.86;126529;1093;104266;-75
2020/12/03 01:48:43;;;;;;;33.77;19.90;;;;;;;-1.26;73.60;100476.25;126687;1092;104337;-76
2020/12/03 01:51:23;;;;;;;36.80;22.30;;;;;;;-1.26;73.71;100471.14;126609;1093;104575;-76
2020/12/03 01:53:54;;;;;;;33.83;21.17;;;;;;;-1.27;73.85;100454.03;126634;1093;104506;-75
2020/12/03 01:56:31;;;;;;;34.13;21.63;;;;;;;-1.25;73.47;100451.53;126604;1093;104420;-76
2020/12/03 01:59:01;;;;;;;38.50;21.77;;;;;;;-1.26;73.71;100442.09;126654;1093;104385;-74
2020/12/03 02:01:30;;;;;;;37.47;22.27;;;;;;;-1.24;73.63;100443.02;126731;1093;104480;-76
2020/12/03 02:03:57;;;;;;;37.97;20.63;;;;;;;-1.25;73.53;100437.03;126645;1098;104491;-76
2020/12/03 02:06:29;;;;;;;37.27;21.13;;;;;;;-1.25;73.30;100434.48;126576;1098;104510;-77
2020/12/03 02:08:57;;;;;;;38.17;22.03;;;;;;;-1.23;73.77;100431.94;126671;1098;104429;-76
2020/12/03 02:11:24;;;;;;;36.13;21.60;;;;;;;-1.22;73.71;100446.46;126642;1093;104451;-76
2020/12/03 02:14:01;;;;;;;41.77;23.03;;;;;;;-1.23;74.15;100435.36;126662;1093;104360;-76
2020/12/03 02:16:34;;;;;;;40.47;22.17;;;;;;;-1.22;74.08;100428.55;126657;1093;104555;-76
2020/12/03 02:19:03;;;;;;;35.77;21.17;;;;;;;-1.23;73.72;100430.25;126411;1096;104445;-76
2020/12/03 02:21:30;;;;;;;37.90;21.43;;;;;;;-1.24;73.78;100428.52;126695;1093;104490;-76
2020/12/03 02:23:57;;;;;;;35.77;22.13;;;;;;;-1.24;73.66;100428.52;126514;1093;104462;-76
2020/12/03 02:26:24;;;;;;;35.43;21.07;;;;;;;-1.22;73.46;100436.22;126638;1093;102827;-76
2020/12/03 02:28:51;;;;;;;37.87;21.57;;;;;;;-1.22;73.78;100426.85;126625;1094;104417;-76
2020/12/03 02:31:18;;;;;;;36.77;22.37;;;;;;;-1.19;73.98;100435.41;126638;1098;104506;-76
2020/12/03 02:33:46;;;;;;;36.07;21.87;;;;;;;-1.19;72.98;100425.18;126636;1093;104417;-76
2020/12/03 02:36:14;;;;;;;38.15;23.05;;;;;;;-1.19;73.66;100413.24;126655;1093;103579;-76
2020/12/03 02:38:41;;;;;;;34.57;20.60;;;;;;;-1.18;73.32;100401.31;126659;1093;104391;-76
2020/12/03 02:41:10;;;;;;;34.77;20.27;;;;;;;-1.19;73.51;100414.94;126570;1093;104598;-76
2020/12/03 02:43:38;;;;;;;34.43;20.97;;;;;;;-1.20;72.78;100397.86;126654;1098;104618;-76
2020/12/03 02:46:05;;;;;;;36.20;21.27;;;;;;;-1.18;73.53;100396.19;126623;1098;104372;-76
2020/12/03 02:48:32;;;;;;;36.93;21.63;;;;;;;-1.17;73.25;100392.80;126678;1098;104464;-76
2020/12/03 02:50:59;;;;;;;35.97;22.00;;;;;;;-1.17;72.77;100395.35;126627;1092;104503;-76
2020/12/03 02:53:27;;;;;;;44.93;24.83;;;;;;;-1.18;73.25;100391.07;126638;1093;104500;-76
2020/12/03 02:55:54;;;;;;;38.50;23.63;;;;;;;-1.18;73.18;100379.14;126632;1093;104394;-77
2020/12/03 02:58:21;;;;;;;44.13;24.40;;;;;;;-1.16;73.48;100376.60;126647;1090;104509;-76
2020/12/03 03:00:49;;;;;;;48.43;28.87;;;;;;;-1.15;72.94;100370.64;126630;1093;104452;-76
2020/12/03 03:03:16;;;;;;;45.90;27.47;;;;;;;-1.13;73.05;100384.33;126665;1093;104456;-76
2020/12/03 03:05:43;;;;;;;48.97;27.47;;;;;;;-1.11;73.47;100377.53;126687;1098;104375;-76
2020/12/03 03:08:10;;;;;;;50.37;30.10;;;;;;;-1.07;73.23;100381.89;126519;1093;104447;-76
2020/12/03 03:10:38;;;;;;;50.80;29.37;;;;;;;-1.07;73.00;100371.66;126627;1093;104646;-76
2020/12/03 03:13:05;;;;;;;51.47;29.17;;;;;;;-1.10;72.70;100364.76;126684;1093;104360;-76
2020/12/03 03:15:32;;;;;;;48.60;30.10;;;;;;;-1.13;73.39;100364.71;126620;1093;105654;-76
2020/12/03 03:17:59;;;;;;;50.97;29.73;;;;;;;-1.13;73.16;100363.85;126602;1098;104446;-76
2020/12/03 03:20:27;;;;;;;51.77;31.27;;;;;;;-1.13;73.08;100357.03;126682;1098;104862;-76
2020/12/03 03:22:54;;;;;;;50.87;30.60;;;;;;;-1.13;72.56;100386.88;126657;1098;104388;-76
2020/12/03 03:25:21;;;;;;;52.93;31.47;;;;;;;-1.15;72.32;100368.08;126674;1098;104516;-77
2020/12/03 03:27:48;;;;;;;52.23;31.30;;;;;;;-1.15;72.75;100379.19;126643;1098;104455;-77
2020/12/03 03:30:16;;;;;;;51.27;29.83;;;;;;;-1.16;72.38;100364.66;126709;1093;104426;-77
2020/12/03 03:32:43;;;;;;;52.63;31.00;;;;;;;-1.16;72.59;100353.56;126410;1098;104490;-76
2020/12/03 03:35:11;;;;;;;45.97;28.47;;;;;;;-1.16;72.55;100348.45;126674;1090;102768;-75
2020/12/03 03:37:38;;;;;;;48.87;30.00;;;;;;;-1.16;72.60;100348.45;126680;1093;104446;-76
2020/12/03 03:40:05;;;;;;;47.00;28.80;;;;;;;-1.16;72.66;100353.56;126601;1093;104391;-76
2020/12/03 03:42:33;;;;;;;48.23;30.47;;;;;;;-1.18;72.64;100353.55;126664;1093;104391;-77
2020/12/03 03:45:00;;;;;;;49.67;29.63;;;;;;;-1.17;72.96;100326.25;126637;1093;104423;-76
2020/12/03 03:47:27;;;;;;;47.17;29.70;;;;;;;-1.17;72.43;100326.25;126654;1093;104522;-76
2020/12/03 03:49:55;;;;;;;50.97;30.20;;;;;;;-1.19;72.60;100323.67;126614;1093;104533;-76
2020/12/03 03:52:22;;;;;;;45.70;28.70;;;;;;;-1.19;72.92;100304.90;126681;1093;104686;-76
2020/12/03 03:54:50;;;;;;;46.73;29.87;;;;;;;-1.19;72.20;100302.34;126682;1093;103663;-76
2020/12/03 03:57:17;;;;;;;49.47;29.63;;;;;;;-1.18;73.03;100292.13;126628;1093;104372;-76
2020/12/03 03:59:48;;;;;;;44.57;27.83;;;;;;;-1.19;72.87;100290.41;126631;1098;104985;-76
2020/12/03 04:02:21;;;;;;;49.30;29.33;;;;;;;-1.23;72.59;100286.94;126589;1093;104534;-76
2020/12/03 04:04:50;;;;;;;48.80;29.47;;;;;;;-1.20;72.88;100285.27;126617;1093;104506;-76
2020/12/03 04:07:17;;;;;;;50.00;30.43;;;;;;;-1.23;72.50;100281.83;126644;1098;104273;-76
2020/12/03 04:09:46;;;;;;;45.50;27.87;;;;;;;-1.24;72.85;100286.92;126403;1093;104634;-77
2020/12/03 04:12:14;;;;;;;44.77;28.93;;;;;;;-1.26;72.60;100286.90;126620;1093;104426;-76
2020/12/03 04:14:41;;;;;;;47.83;28.60;;;;;;;-1.26;72.83;100270.66;126648;1093;104467;-76
2020/12/03 04:17:09;;;;;;;44.40;26.63;;;;;;;-1.27;72.83;100280.03;126656;1098;102509;-76
2020/12/03 04:19:36;;;;;;;46.20;28.67;;;;;;;-1.27;72.43;100263.81;126640;1093;104421;-76
2020/12/03 04:22:04;;;;;;;46.63;27.67;;;;;;;-1.27;73.17;100277.47;126661;1098;104493;-76
2020/12/03 04:24:31;;;;;;;47.30;28.65;;;;;;;-1.27;72.82;100263.81;126665;1093;102734;-76
2020/12/03 04:26:58;;;;;;;44.83;28.37;;;;;;;-1.31;72.44;100270.59;126660;1093;105063;-76
2020/12/03 04:29:25;;;;;;;44.87;27.77;;;;;;;-1.34;72.86;100267.98;126636;1093;104429;-76
2020/12/03 04:31:53;;;;;;;44.33;27.67;;;;;;;-1.36;72.48;100268.80;126683;1098;104818;-76
2020/12/03 04:34:20;;;;;;;43.70;26.30;;;;;;;-1.35;72.98;100276.50;126614;1093;104451;-76
2020/12/03 04:36:47;;;;;;;42.13;26.40;;;;;;;-1.38;72.98;100276.45;126465;1099;104487;-76
2020/12/03 04:39:14;;;;;;;39.47;25.37;;;;;;;-1.37;73.01;100270.50;126671;1093;105054;-76
2020/12/03 04:41:42;;;;;;;37.58;23.83;;;;;;;-1.37;73.10;100262.83;126683;1098;104519;-76
2020/12/03 04:44:12;;;;;;;41.70;25.23;;;;;;;-1.38;73.07;100284.13;126586;1098;104436;-76
2020/12/03 04:46:43;;;;;;;40.20;24.33;;;;;;;-1.37;73.00;100283.30;126665;1093;104413;-76
2020/12/03 04:49:40;;;;;;;37.97;23.30;;;;;;;-1.37;72.34;100273.05;126568;1098;103520;-76
2020/12/03 04:52:47;;;;;;;38.07;23.83;;;;;;;-1.37;72.97;100265.38;126574;1098;103575;-76
2020/12/03 04:55:24;;;;;;;36.70;21.23;;;;;;;-1.36;73.18;100250.89;126349;1097;104289;-77
2020/12/03 04:58:29;;;;;;;40.90;23.70;;;;;;;-1.35;73.15;100260.29;126367;1096;104400;-76
2020/12/03 05:01:10;;;;;;;39.47;22.47;;;;;;;-1.35;73.20;100266.27;126309;1096;104516;-77
2020/12/03 05:03:46;;;;;;;37.83;22.80;;;;;;;-1.36;72.73;100274.78;126342;1097;104411;-76
2020/12/03 05:06:16;;;;;;;38.53;23.00;;;;;;;-1.36;72.93;100268.80;126351;1101;104472;-76
2020/12/03 05:09:01;;;;;;;37.20;23.13;;;;;;;-1.37;72.84;100278.17;126345;1097;104371;-76
2020/12/03 05:11:39;;;;;;;37.27;22.67;;;;;;;-1.37;73.27;100267.94;126337;1096;104423;-76
2020/12/03 05:14:21;;;;;;;37.37;23.13;;;;;;;-1.36;72.99;100279.03;126303;1096;104506;-76
2020/12/03 05:17:01;;;;;;;39.10;23.37;;;;;;;-1.37;72.86;100296.09;126236;1097;104990;-76
2020/12/03 05:19:55;;;;;;;36.40;23.20;;;;;;;-1.37;72.64;100298.64;126257;1097;104263;-76
2020/12/03 05:22:23;;;;;;;39.33;24.07;;;;;;;-1.38;73.34;100289.25;126383;1096;104503;-75
2020/12/03 05:24:50;;;;;;;39.17;23.90;;;;;;;-1.38;72.66;100286.69;126389;1096;104394;-75
2020/12/03 05:27:30;;;;;;;41.63;23.83;;;;;;;-1.36;73.02;100273.92;126397;1096;104439;-75
2020/12/03 05:30:01;;;;;;;37.90;24.40;;;;;;;-1.35;73.37;100276.50;126302;1101;104394;-76
2020/12/03 05:32:28;;;;;;;40.13;23.97;;;;;;;-1.33;73.36;100271.41;126373;1100;104551;-76
2020/12/03 05:34:56;;;;;;;40.97;24.47;;;;;;;-1.33;72.91;100284.20;126693;1093;104391;-77
2020/12/03 05:37:26;;;;;;;39.83;23.95;;;;;;;-1.34;73.25;100267.13;126607;1093;104404;-76
2020/12/03 05:39:58;;;;;;;41.97;24.23;;;;;;;-1.35;73.47;100258.59;126642;1098;101977;-77
2020/12/03 05:42:31;;;;;;;43.50;24.40;;;;;;;-1.35;73.08;100265.41;126702;1093;104535;-76
2020/12/03 05:45:02;;;;;;;40.37;23.53;;;;;;;-1.36;73.16;100243.22;126680;1098;104481;-76
2020/12/03 05:47:32;;;;;;;39.57;22.47;;;;;;;-1.40;72.94;100246.58;126672;1093;104209;-76
2020/12/03 05:50:33;;;;;;;35.17;21.40;;;;;;;-1.43;73.31;100247.39;126647;1093;105139;-76
2020/12/03 05:53:24;;;;;;;34.37;21.37;;;;;;;-1.45;73.41;100237.94;126609;1093;104410;-77
2020/12/03 05:55:52;;;;;;;32.73;20.73;;;;;;;-1.49;73.50;100254.94;126673;1093;104502;-76
2020/12/03 05:58:28;;;;;;;32.73;20.67;;;;;;;-1.49;73.49;100237.03;126624;1093;104442;-77
2020/12/03 06:01:14;;;;;;;34.27;21.83;;;;;;;-1.50;73.80;100224.22;126649;1093;104680;-77
2020/12/03 06:04:00;;;;;;;40.43;21.90;;;;;;;-1.52;74.01;100232.73;126413;1093;104487;-77
2020/12/03 06:06:43;;;;;;;35.93;20.60;;;;;;;-1.53;73.67;100214.81;126684;1093;104493;-77
2020/12/03 06:09:29;;;;;;;33.50;20.90;;;;;;;-1.55;73.91;100221.60;126676;1093;104473;-77
2020/12/03 06:12:24;;;;;;;34.50;20.60;;;;;;;-1.56;73.97;100230.11;126680;1093;104439;-76
2020/12/03 06:15:08;;;;;;;31.50;19.90;;;;;;;-1.59;74.08;100220.70;126659;1093;104375;-77
2020/12/03 06:17:57;;;;;;;35.57;21.03;;;;;;;-1.59;73.81;100217.28;126584;1093;104388;-77
2020/12/03 06:20:53;;;;;;;35.43;20.70;;;;;;;-1.59;74.41;100219.84;126669;1098;103343;-76
2020/12/03 06:23:32;;;;;;;36.60;21.77;;;;;;;-1.61;74.20;100211.28;126684;1093;104410;-77
2020/12/03 06:26:46;;;;;;;34.47;20.27;;;;;;;-1.61;73.93;100201.05;126630;1093;104371;-77
2020/12/03 06:29:34;;;;;;;33.80;20.03;;;;;;;-1.63;74.33;100211.23;126679;1093;104529;-77
2020/12/03 06:32:41;;;;;;;35.87;20.30;;;;;;;-1.61;74.22;100206.17;126682;1093;104407;-77
2020/12/03 06:35:30;;;;;;;33.90;20.27;;;;;;;-1.61;74.45;100195.94;126628;1093;104484;-77
2020/12/03 06:38:28;;;;;;;31.90;19.40;;;;;;;-1.61;74.43;100198.50;126679;1093;104499;-76
2020/12/03 06:41:23;;;;;;;33.10;19.83;;;;;;;-1.61;74.25;100191.69;126601;1093;104497;-77
2020/12/03 06:44:33;;;;;;;33.77;21.17;;;;;;;-1.60;74.37;100189.98;126639;1093;104342;-77
2020/12/03 06:47:06;;;;;;;36.73;21.57;;;;;;;-1.59;74.14;100194.27;126612;1098;104506;-76
2020/12/03 06:49:42;;;;;;;35.20;19.50;;;;;;;-1.58;74.58;100199.40;126689;1093;104477;-77
2020/12/03 06:52:37;;;;;;;39.13;20.12;;;;;;;-1.56;73.86;100194.30;126525;1093;104496;-76
2020/12/03 06:55:36;;;;;;;37.23;19.57;;;;;;;-1.54;74.85;100192.63;126608;1093;104432;-77
2020/12/03 06:58:35;;;;;;;34.53;20.57;;;;;;;-1.53;74.42;100194.34;126652;1093;104528;-77
2020/12/03 07:01:08;;;;;;;37.30;20.30;;;;;;;-1.55;74.52;100181.54;126671;1098;104378;-77
2020/12/03 07:04:05;;;;;;;33.65;20.05;;;;;;;-1.55;74.38;100185.80;126679;1093;104433;-77
2020/12/03 07:06:51;;;;;;;;;;;;;;;-1.55;74.15;100196.02;126670;1093;104448;-76
2020/12/03 07:09:57;;;;;;;36.50;20.93;;;;;;;-1.54;74.55;100198.61;126626;1093;104498;-77
2020/12/03 07:13:04;;;;;;;35.47;19.53;;;;;;;-1.53;74.35;100199.47;126638;1093;104394;-77
2020/12/03 07:15:49;;;;;;;37.63;22.10;;;;;;;-1.50;74.59;100219.97;126379;1096;104451;-77
2020/12/03 07:18:39;;;;;;;36.70;21.13;;;;;;;-1.45;74.18;100197.02;126675;1093;104554;-76
2020/12/03 07:21:22;;;;;;;36.10;22.43;;;;;;;-1.38;74.13;100203.97;126633;1098;104511;-76
2020/12/03 07:24:22;;;;;;;34.70;21.50;;;;;;;-1.31;74.08;100198.09;126707;1093;104426;-76
2020/12/03 07:27:09;;;;;;;37.00;21.40;;;;;;;-1.22;73.92;100206.78;126694;1098;104483;-76
2020/12/03 07:29:51;;;;;;;39.47;22.37;;;;;;;-1.13;73.79;100212.84;126633;1093;104410;-76
2020/12/03 07:32:28;;;;;;;39.03;22.60;;;;;;;-1.08;73.63;100204.39;126695;1098;101976;-77
2020/12/03 07:35:08;;;;;;;;;;;;;;;-1.01;73.53;100210.47;126650;1098;104478;-76
2020/12/03 07:37:42;;;;;;;38.00;22.50;;;;;;;-0.95;72.83;100206.29;126639;1098;104602;-76
2020/12/03 07:40:10;;;;;;;34.85;21.30;;;;;;;-0.88;73.31;100207.25;126649;1098;104567;-77
2020/12/03 07:42:37;;;;;;;38.93;22.97;;;;;;;-0.82;72.88;100212.44;126658;1093;104372;-75
2020/12/03 07:45:29;;;;;;;44.30;24.87;;;;;;;-0.72;72.32;100191.25;126722;1098;104486;-77
2020/12/03 07:48:33;;;;;;;42.63;23.90;;;;;;;-0.62;72.15;100195.63;126694;1098;104419;-77
2020/12/03 07:51:01;;;;;;;41.87;23.00;;;;;;;-0.51;71.69;100177.83;126569;1093;104217;-76
2020/12/03 07:53:30;;;;;;;40.03;23.13;;;;;;;-0.33;71.17;100172.05;126683;1093;104437;-77
2020/12/03 07:55:58;;;;;;;39.43;23.93;;;;;;;-0.25;70.49;100165.28;126693;1093;104473;-77
2020/12/03 07:58:28;;;;;;;39.07;23.00;;;;;;;-0.23;69.66;100163.59;126709;1093;104465;-76
2020/12/03 08:00:56;;;;;;;34.87;21.80;;;;;;;-0.17;69.57;100153.42;126685;1098;104349;-76
2020/12/03 08:03:50;;;;;;;37.23;23.83;;;;;;;-0.04;69.72;100157.80;126663;1098;104677;-76
2020/12/03 08:06:31;;;;;;;38.30;23.77;;;;;;;0.18;69.80;100140.03;126719;1093;104484;-77
2020/12/03 08:09:02;;;;;;;39.80;23.70;;;;;;;0.44;69.26;100153.07;126649;1093;104487;-77
2020/12/03 08:11:35;;;;;;;39.33;23.43;;;;;;;0.56;68.43;100145.47;126707;1093;104471;-76
2020/12/03 08:14:22;;;;;;;42.93;24.27;;;;;;;0.66;68.17;100151.50;126671;1094;104503;-77
2020/12/03 08:16:49;;;;;;;38.85;24.55;;;;;;;0.84;67.70;100141.34;126665;1094;104608;-77
2020/12/03 08:19:26;;;;;;;41.10;23.87;;;;;;;0.94;66.67;100165.38;126557;1091;104494;-76
2020/12/03 08:21:55;;;;;;;37.83;23.37;;;;;;;0.95;66.43;100134.56;126670;1093;104475;-77
2020/12/03 08:24:29;;;;;;;39.70;23.67;;;;;;;1.03;67.26;100127.73;126714;1093;105023;-77
2020/12/03 08:27:17;;;;;;;38.60;23.40;;;;;;;1.08;65.80;100138.91;126659;1093;104570;-77
2020/12/03 08:29:44;;;;;;;39.23;23.63;;;;;;;1.10;66.04;100141.48;126636;1093;104362;-76
2020/12/03 08:32:11;;;;;;;38.53;23.83;;;;;;;1.14;65.50;100145.78;126684;1098;104484;-76
2020/12/03 08:34:41;;;;;;;42.03;24.15;;;;;;;1.17;65.80;100145.79;126692;1093;104468;-76
2020/12/03 08:37:17;;;;;;;42.77;23.80;;;;;;;1.16;66.17;100144.08;126544;1093;104434;-77
2020/12/03 08:39:51;;;;;;;36.90;22.67;;;;;;;1.31;65.87;100135.57;126699;1098;104504;-77
2020/12/03 08:42:19;;;;;;;41.67;24.03;;;;;;;1.39;65.05;100119.31;126640;1093;104586;-77
2020/12/03 08:44:49;;;;;;;39.37;23.83;;;;;;;1.45;65.61;100133.91;126658;1093;104403;-77
2020/12/03 08:47:46;;;;;;;38.67;24.23;;;;;;;1.52;65.42;100133.06;126658;1093;104530;-77
2020/12/03 08:50:14;;;;;;;;;;;;;;;1.63;64.73;100136.53;126502;1093;105126;-77
2020/12/03 08:52:43;;;;;;;42.73;25.23;;;;;;;1.59;64.63;100133.92;126632;1093;104410;-77
2020/12/03 08:55:12;;;;;;;40.87;24.67;;;;;;;1.60;63.52;100138.20;126673;1093;104497;-77
2020/12/03 08:57:42;;;;;;;39.47;25.53;;;;;;;1.57;63.90;100149.34;126698;1093;104229;-77
2020/12/03 09:00:18;;;;;;;40.63;24.60;;;;;;;1.42;63.52;100154.44;126642;1093;104407;-77
2020/12/03 09:02:46;;;;;;;36.07;23.73;;;;;;;1.34;64.06;100140.72;126591;1093;102716;-77
2020/12/03 09:05:15;;;;;;;39.17;24.67;;;;;;;1.31;64.24;100140.71;126701;1093;104480;-76
2020/12/03 09:07:46;;;;;;;39.73;24.77;;;;;;;1.34;64.63;100140.72;126623;1093;104522;-76
2020/12/03 09:10:19;;;;;;;40.73;23.90;;;;;;;1.40;64.29;100156.14;126679;1093;104167;-76
2020/12/03 09:12:48;;;;;;;43.87;24.83;;;;;;;1.49;64.51;100146.77;126623;1093;104435;-77
2020/12/03 09:15:17;;;;;;;43.70;24.20;;;;;;;1.57;64.11;100133.92;126645;1093;102025;-76
2020/12/03 09:17:51;;;;;;;43.70;25.57;;;;;;;1.69;63.56;100138.25;126666;1098;104461;-76
2020/12/03 09:20:18;;;;;;;43.20;24.73;;;;;;;1.78;64.17;100146.81;126675;1093;104625;-77
2020/12/03 09:22:46;;;;;;;43.47;24.67;;;;;;;1.87;63.80;100142.56;126605;1100;104474;-76
2020/12/03 09:25:14;;;;;;;41.97;26.13;;;;;;;1.92;63.14;100144.27;126654;1093;103299;-76
2020/12/03 09:27:48;;;;;;;41.00;25.27;;;;;;;1.96;63.80;100137.41;126593;1098;104427;-77
2020/12/03 09:30:21;;;;;;;44.57;25.70;;;;;;;2.11;63.39;100124.56;126605;1098;104898;-77
2020/12/03 09:32:58;;;;;;;46.47;25.93;;;;;;;2.26;63.11;100121.99;126507;1093;104263;-78
2020/12/03 09:35:28;;;;;;;43.57;26.83;;;;;;;2.37;62.18;100124.58;126643;1093;104531;-77
2020/12/03 09:37:59;;;;;;;49.57;29.73;;;;;;;2.35;61.54;100127.15;126642;1091;104477;-77
2020/12/03 09:40:28;;;;;;;46.90;28.43;;;;;;;2.34;61.35;100117.72;126730;1093;104413;-76
2020/12/03 09:42:56;;;;;;;47.13;28.87;;;;;;;2.37;61.38;100122.86;126681;1093;104548;-76
2020/12/03 09:45:32;;;;;;;47.00;28.37;;;;;;;2.39;60.71;100117.70;126677;1093;104270;-76
2020/12/03 09:48:01;;;;;;;43.10;27.70;;;;;;;2.34;60.63;100122.01;126670;1093;104221;-77
2020/12/03 09:50:29;;;;;;;49.87;27.47;;;;;;;2.18;60.88;100098.00;126637;1093;104437;-77
2020/12/03 09:52:56;;;;;;;42.57;27.07;;;;;;;2.06;60.96;100116.00;126644;1093;104435;-77
2020/12/03 09:55:24;;;;;;;44.53;27.33;;;;;;;1.89;61.71;100125.42;126638;1093;104389;-77
2020/12/03 09:57:56;;;;;;;46.67;29.63;;;;;;;1.81;61.86;100095.42;126664;1093;104542;-77
2020/12/03 10:00:39;;;;;;;49.55;30.05;;;;;;;1.81;62.07;100086.85;126732;1093;104534;-77
2020/12/03 10:03:16;;;;;;;50.23;30.17;;;;;;;1.56;61.91;100085.95;126670;1094;106535;-77
2020/12/03 10:06:05;;;;;;;49.70;28.63;;;;;;;1.34;62.45;100089.33;126680;1093;104397;-77
2020/12/03 10:09:23;;;;;;;48.87;28.73;;;;;;;1.13;63.06;100080.70;126672;1093;104920;-76
2020/12/03 10:11:55;;;;;;;;;;;;;;;1.05;63.10;100087.51;126338;1096;104528;-77
2020/12/03 10:14:35;;;;;;;54.75;32.20;;;;;;;1.06;63.28;100062.69;126345;1101;104920;-77
2020/12/03 10:17:05;;;;;;;49.23;31.10;;;;;;;1.11;63.02;100078.99;126295;1096;104481;-77
2020/12/03 10:19:41;;;;;;;52.37;30.93;;;;;;;1.20;63.10;100067.02;126334;1097;104406;-77
2020/12/03 10:22:34;;;;;;;52.77;31.47;;;;;;;1.37;63.68;100066.20;126366;1101;104509;-77
2020/12/03 10:25:18;;;;;;;54.97;31.90;;;;;;;1.67;63.42;100066.27;126341;1096;104410;-77
2020/12/03 10:28:00;;;;;;;54.13;31.43;;;;;;;1.88;62.09;100069.70;126323;1101;104516;-77
2020/12/03 10:30:38;;;;;;;54.07;31.00;;;;;;;1.99;62.89;100055.13;126349;1097;104609;-77
2020/12/03 10:33:18;;;;;;;52.55;31.30;;;;;;;2.09;61.97;100049.11;126343;1096;105000;-77
2020/12/03 10:35:48;;;;;;;55.57;32.23;;;;;;;2.09;60.47;100061.97;126319;1096;104518;-77
2020/12/03 10:38:23;;;;;;;50.87;30.67;;;;;;;1.98;60.50;100046.56;126178;1097;104382;-77
2020/12/03 10:40:56;;;;;;;51.93;31.43;;;;;;;1.88;60.54;100042.27;126244;1102;104545;-77
2020/12/03 10:43:40;;;;;;;50.57;31.13;;;;;;;1.73;60.71;100043.12;126262;1097;104535;-78
2020/12/03 10:46:15;;;;;;;53.10;31.37;;;;;;;1.53;60.88;100062.81;126324;1096;104446;-77
2020/12/03 10:48:49;;;;;;;53.30;31.37;;;;;;;1.36;61.75;100038.80;126398;1093;104503;-77
2020/12/03 10:51:19;;;;;;;49.00;29.70;;;;;;;1.32;62.19;100047.36;126349;1099;104846;-77
2020/12/03 10:53:47;;;;;;;53.83;31.37;;;;;;;1.29;62.16;100031.95;126627;1098;103375;-77
2020/12/03 10:56:15;;;;;;;51.70;30.97;;;;;;;1.33;62.39;100049.93;126575;1093;104407;-76
2020/12/03 10:59:10;;;;;;;56.17;31.33;;;;;;;1.43;63.03;100019.95;126635;1093;104382;-78
2020/12/03 11:01:39;;;;;;;50.57;31.77;;;;;;;1.57;62.91;100018.25;126590;1093;104471;-77
2020/12/03 11:04:10;;;;;;;55.17;33.00;;;;;;;1.64;62.41;100011.42;126360;1095;104372;-77
2020/12/03 11:06:37;;;;;;;54.03;32.07;;;;;;;1.66;61.97;100020.84;126737;1094;104394;-76
2020/12/03 11:09:05;;;;;;;53.73;31.97;;;;;;;1.68;62.37;100001.13;126709;1093;104519;-77
2020/12/03 11:11:35;;;;;;;53.40;31.63;;;;;;;1.76;61.90;100001.97;126460;1093;104501;-77
2020/12/03 11:14:14;;;;;;;52.80;30.97;;;;;;;1.75;61.48;99995.12;126380;1093;104473;-77
2020/12/03 11:16:56;;;;;;;50.67;29.73;;;;;;;1.74;62.09;100001.12;126630;1094;104449;-77
2020/12/03 11:19:48;;;;;;;54.63;31.57;;;;;;;1.83;62.44;100002.84;126617;1093;104529;-77
2020/12/03 11:22:34;;;;;;;52.93;30.27;;;;;;;1.80;61.18;99993.42;126656;1093;104490;-76
2020/12/03 11:25:04;;;;;;;51.83;31.67;;;;;;;1.76;62.11;99991.69;126637;1093;104807;-76
2020/12/03 11:27:32;;;;;;;58.50;31.97;;;;;;;1.73;61.84;99976.27;126715;1093;104465;-77
2020/12/03 11:30:17;;;;;;;56.93;31.37;;;;;;;1.72;62.03;99969.41;126622;1093;104433;-76
2020/12/03 11:32:53;;;;;;;57.50;32.70;;;;;;;1.76;62.14;99968.55;126592;1098;104320;-77